sensor_id;sensor_type;location;lat;lon;timestamp;pressure;altitude;pressure_sealevel;temperature;humidity
61119;BME280;51448;51.660;5.824;2023-12-20T00:00:37;101440.19;;;7.05;100.00
61119;BME280;51448;51.660;5.824;2023-12-20T00:03:05;101446.28;;;7.03;100.00
61119;BME280;51448;51.660;5.824;2023-12-20T00:05:33;101432.38;;;6.98;100.00
61119;BME280;51448;51.660;5.824;2023-12-20T00:08:00;101453.31;;;6.92;100.00
61119;BME280;51448;51.660;5.824;2023-12-20T00:10:28;101453.31;;;6.85;100.00
61119;BME280;51448;51.660;5.824;2023-12-20T00:12:55;101448.13;;;6.79;100.00
61119;BME280;51448;51.660;5.824;2023-12-20T00:15:23;101442.03;;;6.73;100.00
61119;BME280;51448;51.660;5.824;2023-12-20T00:17:50;101448.16;;;6.67;100.00
61119;BME280;51448;51.660;5.824;2023-12-20T00:20:18;101452.53;;;6.60;100.00
61119;BME280;51448;51.660;5.824;2023-12-20T00:22:46;101455.13;;;6.56;100.00
61119;BME280;51448;51.660;5.824;2023-12-20T00:25:13;101454.28;;;6.51;100.00
61119;BME280;51448;51.660;5.824;2023-12-20T00:27:41;101449.91;;;6.47;100.00
61119;BME280;51448;51.660;5.824;2023-12-20T00:30:10;101459.50;;;6.43;100.00
61119;BME280;51448;51.660;5.824;2023-12-20T00:32:38;101458.63;;;6.39;100.00
61119;BME280;51448;51.660;5.824;2023-12-20T00:35:06;101455.16;;;6.37;100.00
61119;BME280;51448;51.660;5.824;2023-12-20T00:37:34;101455.16;;;6.34;100.00
61119;BME280;51448;51.660;5.824;2023-12-20T00:40:01;101456.88;;;6.35;100.00
61119;BME280;51448;51.660;5.824;2023-12-20T00:42:29;101442.09;;;6.33;100.00
61119;BME280;51448;51.660;5.824;2023-12-20T00:44:58;101429.91;;;6.32;100.00
61119;BME280;51448;51.660;5.824;2023-12-20T00:47:26;101432.53;;;6.30;100.00
61119;BME280;51448;51.660;5.824;2023-12-20T00:49:54;101433.38;;;6.29;100.00
61119;BME280;51448;51.660;5.824;2023-12-20T00:52:21;101436.00;;;6.26;100.00
61119;BME280;51448;51.660;5.824;2023-12-20T00:54:50;101438.63;;;6.21;100.00
61119;BME280;51448;51.660;5.824;2023-12-20T00:57:18;101438.59;;;6.17;100.00
61119;BME280;51448;51.660;5.824;2023-12-20T00:59:45;101433.41;;;6.15;100.00
61119;BME280;51448;51.660;5.824;2023-12-20T01:02:13;101435.16;;;6.13;100.00
61119;BME280;51448;51.660;5.824;2023-12-20T01:04:40;101437.75;;;6.12;100.00
61119;BME280;51448;51.660;5.824;2023-12-20T01:07:08;101439.50;;;6.10;100.00
61119;BME280;51448;51.660;5.824;2023-12-20T01:09:35;101441.22;;;6.04;100.00
61119;BME280;51448;51.660;5.824;2023-12-20T01:12:06;101441.22;;;6.04;100.00
61119;BME280;51448;51.660;5.824;2023-12-20T01:14:33;101447.31;;;6.00;100.00
61119;BME280;51448;51.660;5.824;2023-12-20T01:17:01;101449.91;;;6.00;100.00
61119;BME280;51448;51.660;5.824;2023-12-20T01:19:29;101464.75;;;5.97;100.00
61119;BME280;51448;51.660;5.824;2023-12-20T01:21:57;101455.97;;;5.92;100.00
61119;BME280;51448;51.660;5.824;2023-12-20T01:24:24;101449.88;;;5.88;100.00
61119;BME280;51448;51.660;5.824;2023-12-20T01:26:52;101445.53;;;5.87;100.00
61119;BME280;51448;51.660;5.824;2023-12-20T01:29:19;101459.44;;;5.86;100.00
61119;BME280;51448;51.660;5.824;2023-12-20T01:31:47;101463.78;;;5.84;100.00
61119;BME280;51448;51.660;5.824;2023-12-20T01:34:15;101454.25;;;5.84;100.00
61119;BME280;51448;51.660;5.824;2023-12-20T01:36:42;101461.19;;;5.85;100.00
61119;BME280;51448;51.660;5.824;2023-12-20T01:39:10;101454.25;;;5.84;100.00
61119;BME280;51448;51.660;5.824;2023-12-20T01:41:51;101463.81;;;5.85;100.00
61119;BME280;51448;51.660;5.824;2023-12-20T01:44:19;101465.56;;;5.85;100.00
61119;BME280;51448;51.660;5.824;2023-12-20T01:46:47;101455.13;;;5.85;100.00
61119;BME280;51448;51.660;5.824;2023-12-20T01:49:15;101454.25;;;5.84;100.00
61119;BME280;51448;51.660;5.824;2023-12-20T01:51:43;101446.41;;;5.81;100.00
61119;BME280;51448;51.660;5.824;2023-12-20T01:54:12;101439.44;;;5.80;100.00
61119;BME280;51448;51.660;5.824;2023-12-20T01:56:40;101434.22;;;5.79;100.00
61119;BME280;51448;51.660;5.824;2023-12-20T01:59:08;101451.63;;;5.77;100.00
61119;BME280;51448;51.660;5.824;2023-12-20T02:01:36;101455.97;;;5.75;100.00
61119;BME280;51448;51.660;5.824;2023-12-20T02:04:04;101455.09;;;5.73;100.00
61119;BME280;51448;51.660;5.824;2023-12-20T02:06:33;101444.63;;;5.70;100.00
61119;BME280;51448;51.660;5.824;2023-12-20T02:09:01;101448.13;;;5.69;100.00
61119;BME280;51448;51.660;5.824;2023-12-20T02:11:29;101437.66;;;5.65;100.00
61119;BME280;51448;51.660;5.824;2023-12-20T02:13:56;101442.03;;;5.62;100.00
61119;BME280;51448;51.660;5.824;2023-12-20T02:16:24;101447.22;;;5.59;100.00
61119;BME280;51448;51.660;5.824;2023-12-20T02:18:52;101450.72;;;5.56;100.00
61119;BME280;51448;51.660;5.824;2023-12-20T02:21:25;101446.34;;;5.55;100.00
61119;BME280;51448;51.660;5.824;2023-12-20T02:23:52;101455.03;;;5.53;100.00
61119;BME280;51448;51.660;5.824;2023-12-20T02:26:20;101457.66;;;5.53;100.00
61119;BME280;51448;51.660;5.824;2023-12-20T02:28:48;101454.16;;;5.49;100.00
61119;BME280;51448;51.660;5.824;2023-12-20T02:31:15;101453.28;;;5.47;100.00
61119;BME280;51448;51.660;5.824;2023-12-20T02:33:43;101457.63;;;5.45;100.00
61119;BME280;51448;51.660;5.824;2023-12-20T02:36:10;101451.53;;;5.43;100.00
61119;BME280;51448;51.660;5.824;2023-12-20T02:38:38;101455.88;;;5.41;100.00
61119;BME280;51448;51.660;5.824;2023-12-20T02:41:05;101466.31;;;5.38;100.00
61119;BME280;51448;51.660;5.824;2023-12-20T02:43:33;101452.38;;;5.34;100.00
61119;BME280;51448;51.660;5.824;2023-12-20T02:46:00;101455.88;;;5.33;100.00
61119;BME280;51448;51.660;5.824;2023-12-20T02:48:28;101454.97;;;5.33;100.00
61119;BME280;51448;51.660;5.824;2023-12-20T02:50:55;101445.41;;;5.30;100.00
61119;BME280;51448;51.660;5.824;2023-12-20T02:53:23;101454.13;;;5.29;100.00
61119;BME280;51448;51.660;5.824;2023-12-20T02:55:50;101448.88;;;5.26;100.00
61119;BME280;51448;51.660;5.824;2023-12-20T02:58:18;101448.00;;;5.26;100.00
61119;BME280;51448;51.660;5.824;2023-12-20T03:00:46;101446.25;;;5.24;100.00
61119;BME280;51448;51.660;5.824;2023-12-20T03:03:13;101442.75;;;5.22;100.00
61119;BME280;51448;51.660;5.824;2023-12-20T03:05:41;101444.50;;;5.22;100.00
61119;BME280;51448;51.660;5.824;2023-12-20T03:08:08;101446.25;;;5.21;100.00
61119;BME280;51448;51.660;5.824;2023-12-20T03:10:37;101445.38;;;5.19;100.00
61119;BME280;51448;51.660;5.824;2023-12-20T03:13:05;101442.75;;;5.19;100.00
61119;BME280;51448;51.660;5.824;2023-12-20T03:15:32;101441.91;;;5.19;100.00
61119;BME280;51448;51.660;5.824;2023-12-20T03:18:00;101435.78;;;5.18;100.00
61119;BME280;51448;51.660;5.824;2023-12-20T03:20:28;101433.19;;;5.20;100.00
61119;BME280;51448;51.660;5.824;2023-12-20T03:22:58;101425.34;;;5.18;100.00
61119;BME280;51448;51.660;5.824;2023-12-20T03:25:25;101418.41;;;5.17;100.00
61119;BME280;51448;51.660;5.824;2023-12-20T03:27:53;101419.28;;;5.18;100.00
61119;BME280;51448;51.660;5.824;2023-12-20T03:30:21;101424.47;;;5.16;100.00
61119;BME280;51448;51.660;5.824;2023-12-20T03:32:48;101426.22;;;5.16;100.00
61119;BME280;51448;51.660;5.824;2023-12-20T03:35:16;101420.16;;;5.15;100.00
61119;BME280;51448;51.660;5.824;2023-12-20T03:37:43;101416.69;;;5.15;100.00
61119;BME280;51448;51.660;5.824;2023-12-20T03:40:11;101421.00;;;5.13;100.00
61119;BME280;51448;51.660;5.824;2023-12-20T03:42:39;101420.13;;;5.12;100.00
61119;BME280;51448;51.660;5.824;2023-12-20T03:45:07;101421.00;;;5.11;100.00
61119;BME280;51448;51.660;5.824;2023-12-20T03:47:35;101421.84;;;5.10;100.00
61119;BME280;51448;51.660;5.824;2023-12-20T03:50:02;101414.91;;;5.09;100.00
61119;BME280;51448;51.660;5.824;2023-12-20T03:52:30;101414.03;;;5.07;100.00
61119;BME280;51448;51.660;5.824;2023-12-20T03:54:58;101413.16;;;5.07;100.00
61119;BME280;51448;51.660;5.824;2023-12-20T03:57:25;101406.19;;;5.04;100.00
61119;BME280;51448;51.660;5.824;2023-12-20T03:59:53;101410.53;;;5.03;100.00
61119;BME280;51448;51.660;5.824;2023-12-20T04:02:20;101401.00;;;5.02;100.00
61119;BME280;51448;51.660;5.824;2023-12-20T04:04:48;101414.03;;;5.02;100.00
61119;BME280;51448;51.660;5.824;2023-12-20T04:07:16;101402.69;;;5.02;100.00
61119;BME280;51448;51.660;5.824;2023-12-20T04:09:43;101406.19;;;5.04;100.00
61119;BME280;51448;51.660;5.824;2023-12-20T04:12:11;101416.63;;;5.07;100.00
61119;BME280;51448;51.660;5.824;2023-12-20T04:14:39;101426.22;;;5.11;100.00
61119;BME280;51448;51.660;5.824;2023-12-20T04:17:07;101428.81;;;5.14;100.00
61119;BME280;51448;51.660;5.824;2023-12-20T04:19:34;101421.03;;;5.17;100.00
61119;BME280;51448;51.660;5.824;2023-12-20T04:22:02;101426.22;;;5.20;100.00
61119;BME280;51448;51.660;5.824;2023-12-20T04:24:30;101433.22;;;5.23;100.00
61119;BME280;51448;51.660;5.824;2023-12-20T04:26:58;101420.19;;;5.28;100.00
61119;BME280;51448;51.660;5.824;2023-12-20T04:29:25;101421.94;;;5.32;100.00
61119;BME280;51448;51.660;5.824;2023-12-20T04:31:53;101411.50;;;5.35;100.00
61119;BME280;51448;51.660;5.824;2023-12-20T04:34:21;101414.13;;;5.38;100.00
61119;BME280;51448;51.660;5.824;2023-12-20T04:36:49;101415.00;;;5.40;100.00
61119;BME280;51448;51.660;5.824;2023-12-20T04:39:17;101423.69;;;5.45;100.00
61119;BME280;51448;51.660;5.824;2023-12-20T04:41:44;101411.53;;;5.47;100.00
61119;BME280;51448;51.660;5.824;2023-12-20T04:44:12;101408.94;;;5.50;100.00
61119;BME280;51448;51.660;5.824;2023-12-20T04:46:39;101411.56;;;5.56;100.00
61119;BME280;51448;51.660;5.824;2023-12-20T04:49:07;101412.44;;;5.58;100.00
61119;BME280;51448;51.660;5.824;2023-12-20T04:51:35;101416.78;;;5.59;100.00
61119;BME280;51448;51.660;5.824;2023-12-20T04:54:03;101413.31;;;5.60;100.00
61119;BME280;51448;51.660;5.824;2023-12-20T04:56:30;101409.84;;;5.64;100.00
61119;BME280;51448;51.660;5.824;2023-12-20T04:58:58;101407.22;;;5.68;100.00
61119;BME280;51448;51.660;5.824;2023-12-20T05:01:25;101416.81;;;5.69;100.00
61119;BME280;51448;51.660;5.824;2023-12-20T05:03:53;101409.84;;;5.69;100.00
61119;BME280;51448;51.660;5.824;2023-12-20T05:06:21;101417.66;;;5.69;100.00
61119;BME280;51448;51.660;5.824;2023-12-20T05:08:48;101408.97;;;5.69;100.00
61119;BME280;51448;51.660;5.824;2023-12-20T05:11:16;101409.84;;;5.71;100.00
61119;BME280;51448;51.660;5.824;2023-12-20T05:13:44;101408.97;;;5.72;100.00
61119;BME280;51448;51.660;5.824;2023-12-20T05:16:16;101404.63;;;5.74;100.00
61119;BME280;51448;51.660;5.824;2023-12-20T05:18:48;101393.31;;;5.75;100.00
61119;BME280;51448;51.660;5.824;2023-12-20T05:21:16;101394.19;;;5.77;100.00
61119;BME280;51448;51.660;5.824;2023-12-20T05:23:45;101402.91;;;5.80;100.00
61119;BME280;51448;51.660;5.824;2023-12-20T05:26:13;101396.81;;;5.83;100.00
61119;BME280;51448;51.660;5.824;2023-12-20T05:28:40;101397.69;;;5.85;100.00
61119;BME280;51448;51.660;5.824;2023-12-20T05:31:08;101383.75;;;5.89;100.00
61119;BME280;51448;51.660;5.824;2023-12-20T05:33:36;101390.69;;;5.90;100.00
61119;BME280;51448;51.660;5.824;2023-12-20T05:36:04;101387.25;;;5.91;100.00
61119;BME280;51448;51.660;5.824;2023-12-20T05:38:32;101382.00;;;5.94;100.00
61119;BME280;51448;51.660;5.824;2023-12-20T05:41:00;101387.22;;;5.94;100.00
61119;BME280;51448;51.660;5.824;2023-12-20T05:43:27;101395.09;;;5.97;100.00
61119;BME280;51448;51.660;5.824;2023-12-20T05:45:55;101392.50;;;5.97;100.00
61119;BME280;51448;51.660;5.824;2023-12-20T05:48:22;101384.66;;;5.99;100.00
61119;BME280;51448;51.660;5.824;2023-12-20T05:50:50;101378.56;;;6.01;100.00
61119;BME280;51448;51.660;5.824;2023-12-20T05:53:17;101381.19;;;6.03;100.00
61119;BME280;51448;51.660;5.824;2023-12-20T05:55:45;101396.84;;;6.06;100.00
61119;BME280;51448;51.660;5.824;2023-12-20T05:58:12;101394.22;;;6.08;100.00
61119;BME280;51448;51.660;5.824;2023-12-20T06:00:40;101395.09;;;6.14;100.00
61119;BME280;51448;51.660;5.824;2023-12-20T06:03:07;101405.53;;;6.14;100.00
61119;BME280;51448;51.660;5.824;2023-12-20T06:05:35;101402.06;;;6.15;100.00
61119;BME280;51448;51.660;5.824;2023-12-20T06:08:02;101409.88;;;6.17;100.00
61119;BME280;51448;51.660;5.824;2023-12-20T06:10:30;101410.78;;;6.17;100.00
61119;BME280;51448;51.660;5.824;2023-12-20T06:12:58;101410.75;;;6.19;100.00
61119;BME280;51448;51.660;5.824;2023-12-20T06:15:28;101413.38;;;6.22;100.00
61119;BME280;51448;51.660;5.824;2023-12-20T06:17:55;101413.38;;;6.22;100.00
61119;BME280;51448;51.660;5.824;2023-12-20T06:20:23;101422.94;;;6.24;100.00
61119;BME280;51448;51.660;5.824;2023-12-20T06:22:51;101420.34;;;6.26;100.00
61119;BME280;51448;51.660;5.824;2023-12-20T06:25:18;101416.84;;;6.27;100.00
61119;BME280;51448;51.660;5.824;2023-12-20T06:27:46;101411.59;;;6.27;100.00
61119;BME280;51448;51.660;5.824;2023-12-20T06:30:16;101414.22;;;6.27;100.00
61119;BME280;51448;51.660;5.824;2023-12-20T06:32:44;101408.13;;;6.28;100.00
61119;BME280;51448;51.660;5.824;2023-12-20T06:35:11;101399.44;;;6.28;100.00
61119;BME280;51448;51.660;5.824;2023-12-20T06:37:39;101400.31;;;6.28;100.00
61119;BME280;51448;51.660;5.824;2023-12-20T06:40:10;101399.41;;;6.29;100.00
61119;BME280;51448;51.660;5.824;2023-12-20T06:42:46;101400.31;;;6.30;100.00
61119;BME280;51448;51.660;5.824;2023-12-20T06:45:31;101403.78;;;6.27;100.00
61119;BME280;51448;51.660;5.824;2023-12-20T06:47:59;101400.31;;;6.28;100.00
61119;BME280;51448;51.660;5.824;2023-12-20T06:50:26;101403.78;;;6.27;100.00
61119;BME280;51448;51.660;5.824;2023-12-20T06:52:54;101408.13;;;6.27;100.00
61119;BME280;51448;51.660;5.824;2023-12-20T06:55:22;101402.91;;;6.25;100.00
61119;BME280;51448;51.660;5.824;2023-12-20T06:57:50;101402.94;;;6.23;100.00
61119;BME280;51448;51.660;5.824;2023-12-20T07:00:18;101405.50;;;6.25;100.00
61119;BME280;51448;51.660;5.824;2023-12-20T07:02:47;101398.56;;;6.24;100.00
61119;BME280;51448;51.660;5.824;2023-12-20T07:05:16;101400.31;;;6.20;100.00
61119;BME280;51448;51.660;5.824;2023-12-20T07:07:47;101395.97;;;6.18;100.00
61119;BME280;51448;51.660;5.824;2023-12-20T07:10:15;101385.50;;;6.16;100.00
61119;BME280;51448;51.660;5.824;2023-12-20T07:12:42;101397.72;;;6.17;100.00
61119;BME280;51448;51.660;5.824;2023-12-20T07:15:11;101395.94;;;6.15;100.00
61119;BME280;51448;51.660;5.824;2023-12-20T07:17:39;101389.88;;;6.16;100.00
61119;BME280;51448;51.660;5.824;2023-12-20T07:20:07;101398.56;;;6.12;100.00
61119;BME280;51448;51.660;5.824;2023-12-20T07:22:38;101402.94;;;6.10;100.00
61119;BME280;51448;51.660;5.824;2023-12-20T07:25:07;101403.78;;;6.09;100.00
61119;BME280;51448;51.660;5.824;2023-12-20T07:27:35;101405.53;;;6.10;100.00
61119;BME280;51448;51.660;5.824;2023-12-20T07:30:03;101403.78;;;6.10;100.00
61119;BME280;51448;51.660;5.824;2023-12-20T07:32:31;101396.84;;;6.08;100.00
61119;BME280;51448;51.660;5.824;2023-12-20T07:34:59;101398.56;;;6.04;100.00
61119;BME280;51448;51.660;5.824;2023-12-20T07:37:27;101402.94;;;6.05;100.00
61119;BME280;51448;51.660;5.824;2023-12-20T07:39:54;101403.78;;;6.04;100.00
61119;BME280;51448;51.660;5.824;2023-12-20T07:42:22;101405.53;;;6.08;100.00
61119;BME280;51448;51.660;5.824;2023-12-20T07:44:49;101409.03;;;6.07;100.00
61119;BME280;51448;51.660;5.824;2023-12-20T07:47:17;101404.66;;;6.08;100.00
61119;BME280;51448;51.660;5.824;2023-12-20T07:49:49;101408.13;;;6.07;100.00
61119;BME280;51448;51.660;5.824;2023-12-20T07:52:18;101400.31;;;6.03;100.00
61119;BME280;51448;51.660;5.824;2023-12-20T07:54:46;101399.47;;;6.03;100.00
61119;BME280;51448;51.660;5.824;2023-12-20T07:57:14;101401.19;;;6.02;100.00
61119;BME280;51448;51.660;5.824;2023-12-20T07:59:41;101392.47;;;6.02;100.00
61119;BME280;51448;51.660;5.824;2023-12-20T08:02:09;101390.75;;;5.99;100.00
61119;BME280;51448;51.660;5.824;2023-12-20T08:04:37;101409.03;;;5.99;100.00
61119;BME280;51448;51.660;5.824;2023-12-20T08:07:05;101400.31;;;6.00;100.00
61119;BME280;51448;51.660;5.824;2023-12-20T08:09:32;101404.66;;;6.00;100.00
61119;BME280;51448;51.660;5.824;2023-12-20T08:12:01;101409.03;;;6.01;100.00
61119;BME280;51448;51.660;5.824;2023-12-20T08:14:29;101414.25;;;6.04;100.00
61119;BME280;51448;51.660;5.824;2023-12-20T08:16:56;101418.59;;;6.05;100.00
61119;BME280;51448;51.660;5.824;2023-12-20T08:19:24;101423.81;;;6.03;100.00
61119;BME280;51448;51.660;5.824;2023-12-20T08:21:51;101422.09;;;6.06;100.00
61119;BME280;51448;51.660;5.824;2023-12-20T08:24:19;101427.28;;;6.02;100.00
61119;BME280;51448;51.660;5.824;2023-12-20T08:26:46;101430.78;;;6.04;100.00
61119;BME280;51448;51.660;5.824;2023-12-20T08:29:14;101434.25;;;6.07;100.00
61119;BME280;51448;51.660;5.824;2023-12-20T08:31:41;101430.78;;;6.08;100.00
61119;BME280;51448;51.660;5.824;2023-12-20T08:34:09;101430.78;;;6.09;100.00
61119;BME280;51448;51.660;5.824;2023-12-20T08:36:39;101431.66;;;6.11;100.00
61119;BME280;51448;51.660;5.824;2023-12-20T08:39:06;101431.66;;;6.14;100.00
61119;BME280;51448;51.660;5.824;2023-12-20T08:41:35;101421.19;;;6.14;100.00
61119;BME280;51448;51.660;5.824;2023-12-20T08:44:04;101424.69;;;6.16;100.00
61119;BME280;51448;51.660;5.824;2023-12-20T08:46:31;101429.03;;;6.16;100.00
61119;BME280;51448;51.660;5.824;2023-12-20T08:48:59;101413.34;;;6.19;100.00
61119;BME280;51448;51.660;5.824;2023-12-20T08:51:28;101416.84;;;6.26;100.00
61119;BME280;51448;51.660;5.824;2023-12-20T08:53:56;101401.16;;;6.30;100.00
61119;BME280;51448;51.660;5.824;2023-12-20T08:56:23;101397.69;;;6.30;100.00
61119;BME280;51448;51.660;5.824;2023-12-20T08:58:51;101388.97;;;6.32;100.00
61119;BME280;51448;51.660;5.824;2023-12-20T09:01:19;101385.47;;;6.35;100.00
61119;BME280;51448;51.660;5.824;2023-12-20T09:03:46;101388.94;;;6.35;100.00
61119;BME280;51448;51.660;5.824;2023-12-20T09:06:14;101381.13;;;6.38;100.00
61119;BME280;51448;51.660;5.824;2023-12-20T09:08:42;101374.16;;;6.40;100.00
61119;BME280;51448;51.660;5.824;2023-12-20T09:11:10;101383.72;;;6.41;100.00
61119;BME280;51448;51.660;5.824;2023-12-20T09:13:38;101393.31;;;6.44;100.00
61119;BME280;51448;51.660;5.824;2023-12-20T09:16:05;101385.44;;;6.45;100.00
61119;BME280;51448;51.660;5.824;2023-12-20T09:18:33;101391.56;;;6.52;100.00
61119;BME280;51448;51.660;5.824;2023-12-20T09:21:01;101383.69;;;6.54;100.00
61119;BME280;51448;51.660;5.824;2023-12-20T09:23:29;101387.19;;;6.54;100.00
61119;BME280;51448;51.660;5.824;2023-12-20T09:25:56;101404.59;;;6.60;100.00
61119;BME280;51448;51.660;5.824;2023-12-20T09:28:24;101400.25;;;6.59;100.00
61119;BME280;51448;51.660;5.824;2023-12-20T09:30:52;101403.72;;;6.61;100.00
61119;BME280;51448;51.660;5.824;2023-12-20T09:33:19;101400.22;;;6.63;100.00
61119;BME280;51448;51.660;5.824;2023-12-20T09:35:47;101380.19;;;6.64;100.00
61119;BME280;51448;51.660;5.824;2023-12-20T09:38:15;101386.28;;;6.68;100.00
61119;BME280;51448;51.660;5.824;2023-12-20T09:40:44;101381.03;;;6.69;100.00
61119;BME280;51448;51.660;5.824;2023-12-20T09:43:14;101364.47;;;6.70;100.00
61119;BME280;51448;51.660;5.824;2023-12-20T09:45:47;101379.28;;;6.74;100.00
61119;BME280;51448;51.660;5.824;2023-12-20T09:48:17;101386.25;;;6.75;100.00
61119;BME280;51448;51.660;5.824;2023-12-20T09:50:46;101394.09;;;6.75;100.00
61119;BME280;51448;51.660;5.824;2023-12-20T09:53:21;101394.09;;;6.77;100.00
61119;BME280;51448;51.660;5.824;2023-12-20T09:55:59;101388.84;;;6.78;100.00
61119;BME280;51448;51.660;5.824;2023-12-20T09:58:30;101396.72;;;6.77;100.00
61119;BME280;51448;51.660;5.824;2023-12-20T10:00:58;101391.50;;;6.77;100.00
61119;BME280;51448;51.660;5.824;2023-12-20T10:03:26;101396.69;;;6.80;100.00
61119;BME280;51448;51.660;5.824;2023-12-20T10:05:57;101394.06;;;6.81;100.00
61119;BME280;51448;51.660;5.824;2023-12-20T10:08:26;101399.31;;;6.78;100.00
61119;BME280;51448;51.660;5.824;2023-12-20T10:10:53;101392.31;;;6.80;100.00
61119;BME280;51448;51.660;5.824;2023-12-20T10:13:22;101381.88;;;6.82;100.00
61119;BME280;51448;51.660;5.824;2023-12-20T10:15:50;101386.25;;;6.83;100.00
61119;BME280;51448;51.660;5.824;2023-12-20T10:18:18;101392.31;;;6.83;100.00
61119;BME280;51448;51.660;5.824;2023-12-20T10:20:46;101387.09;;;6.83;100.00
61119;BME280;51448;51.660;5.824;2023-12-20T10:23:15;101384.47;;;6.87;100.00
61119;BME280;51448;51.660;5.824;2023-12-20T10:25:43;101389.69;;;6.87;100.00
61119;BME280;51448;51.660;5.824;2023-12-20T10:28:15;101386.22;;;6.89;100.00
61119;BME280;51448;51.660;5.824;2023-12-20T10:30:50;101387.06;;;6.90;100.00
61119;BME280;51448;51.660;5.824;2023-12-20T10:33:28;101391.41;;;6.92;100.00
61119;BME280;51448;51.660;5.824;2023-12-20T10:35:56;101387.03;;;6.93;100.00
61119;BME280;51448;51.660;5.824;2023-12-20T10:38:23;101388.81;;;6.94;100.00
61119;BME280;51448;51.660;5.824;2023-12-20T10:40:56;101383.56;;;6.95;100.00
61119;BME280;51448;51.660;5.824;2023-12-20T10:43:28;101380.06;;;6.96;100.00
61119;BME280;51448;51.660;5.824;2023-12-20T10:45:58;101368.72;;;7.00;100.00
61119;BME280;51448;51.660;5.824;2023-12-20T10:48:26;101364.34;;;7.02;100.00
61119;BME280;51448;51.660;5.824;2023-12-20T10:50:58;101363.47;;;7.03;100.00
61119;BME280;51448;51.660;5.824;2023-12-20T10:53:26;101365.19;;;7.06;100.00
61119;BME280;51448;51.660;5.824;2023-12-20T10:55:55;101361.69;;;7.09;100.00
61119;BME280;51448;51.660;5.824;2023-12-20T10:58:26;101361.66;;;7.13;100.00
61119;BME280;51448;51.660;5.824;2023-12-20T11:01:00;101360.78;;;7.17;100.00
61119;BME280;51448;51.660;5.824;2023-12-20T11:03:34;101360.78;;;7.17;100.00
61119;BME280;51448;51.660;5.824;2023-12-20T11:09:19;101345.94;;;7.24;100.00
61119;BME280;51448;51.660;5.824;2023-12-20T11:12:10;101345.03;;;7.27;100.00
61119;BME280;51448;51.660;5.824;2023-12-20T11:14:52;101345.84;;;7.33;100.00
61119;BME280;51448;51.660;5.824;2023-12-20T11:17:23;101331.88;;;7.36;100.00
61119;BME280;51448;51.660;5.824;2023-12-20T11:22:26;101344.09;;;7.38;100.00
61119;BME280;51448;51.660;5.824;2023-12-20T11:25:02;101346.69;;;7.40;100.00
61119;BME280;51448;51.660;5.824;2023-12-20T11:27:32;101344.91;;;7.42;100.00
61119;BME280;51448;51.660;5.824;2023-12-20T11:30:03;101342.28;;;7.45;100.00
61119;BME280;51448;51.660;5.824;2023-12-20T11:32:36;101342.25;;;7.48;100.00
61119;BME280;51448;51.660;5.824;2023-12-20T11:37:36;101329.16;;;7.50;100.00
61119;BME280;51448;51.660;5.824;2023-12-20T11:40:07;101330.88;;;7.52;100.00
61119;BME280;51448;51.660;5.824;2023-12-20T11:42:40;101330.03;;;7.53;100.00
61119;BME280;51448;51.660;5.824;2023-12-20T11:45:09;101339.59;;;7.57;100.00
61119;BME280;51448;51.660;5.824;2023-12-20T11:47:37;101336.06;;;7.58;100.00
61119;BME280;51448;51.660;5.824;2023-12-20T11:50:06;101337.81;;;7.59;100.00
61119;BME280;51448;51.660;5.824;2023-12-20T11:52:34;101330.84;;;7.58;100.00
61119;BME280;51448;51.660;5.824;2023-12-20T11:55:02;101319.50;;;7.56;100.00
61119;BME280;51448;51.660;5.824;2023-12-20T11:57:32;101318.66;;;7.56;100.00
61119;BME280;51448;51.660;5.824;2023-12-20T12:00:01;101313.41;;;7.57;100.00
61119;BME280;51448;51.660;5.824;2023-12-20T12:02:38;101315.16;;;7.57;100.00
61119;BME280;51448;51.660;5.824;2023-12-20T12:05:06;101317.78;;;7.55;100.00
61119;BME280;51448;51.660;5.824;2023-12-20T12:07:34;101314.28;;;7.56;100.00
61119;BME280;51448;51.660;5.824;2023-12-20T12:10:03;101307.31;;;7.54;100.00
61119;BME280;51448;51.660;5.824;2023-12-20T12:12:31;101308.22;;;7.53;100.00
61119;BME280;51448;51.660;5.824;2023-12-20T12:15:00;101304.72;;;7.54;100.00
61119;BME280;51448;51.660;5.824;2023-12-20T12:17:27;101293.38;;;7.53;100.00
61119;BME280;51448;51.660;5.824;2023-12-20T12:20:02;101288.09;;;7.56;100.00
61119;BME280;51448;51.660;5.824;2023-12-20T12:22:33;101291.59;;;7.57;100.00
61119;BME280;51448;51.660;5.824;2023-12-20T12:25:11;101295.94;;;7.58;100.00
61119;BME280;51448;51.660;5.824;2023-12-20T12:27:41;101283.72;;;7.58;100.00
61119;BME280;51448;51.660;5.824;2023-12-20T12:30:10;101288.09;;;7.59;100.00
61119;BME280;51448;51.660;5.824;2023-12-20T12:32:40;101281.97;;;7.60;100.00
61119;BME280;51448;51.660;5.824;2023-12-20T12:35:08;101276.72;;;7.60;100.00
61119;BME280;51448;51.660;5.824;2023-12-20T12:37:39;101280.19;;;7.64;100.00
61119;BME280;51448;51.660;5.824;2023-12-20T12:40:12;101281.09;;;7.63;100.00
61119;BME280;51448;51.660;5.824;2023-12-20T12:42:43;101284.56;;;7.60;100.00
61119;BME280;51448;51.660;5.824;2023-12-20T12:45:12;101284.56;;;7.62;100.00
61119;BME280;51448;51.660;5.824;2023-12-20T12:47:40;101281.09;;;7.61;100.00
61119;BME280;51448;51.660;5.824;2023-12-20T12:50:08;101271.47;;;7.60;100.00
61119;BME280;51448;51.660;5.824;2023-12-20T12:52:36;101272.38;;;7.59;100.00
61119;BME280;51448;51.660;5.824;2023-12-20T12:55:05;101270.63;;;7.60;100.00
61119;BME280;51448;51.660;5.824;2023-12-20T12:57:33;101263.66;;;7.59;100.00
61119;BME280;51448;51.660;5.824;2023-12-20T13:00:01;101258.44;;;7.59;100.00
61119;BME280;51448;51.660;5.824;2023-12-20T13:02:30;101252.31;;;7.58;100.00
61119;BME280;51448;51.660;5.824;2023-12-20T13:04:58;101241.84;;;7.58;100.00